Time;durP1;ratioP1;P1;durP2;ratioP2;P2;SDS_P1;SDS_P2;PMS_P1;PMS_P2;Temp;Humidity;BMP_temperature;BMP_pressure;BME280_temperature;BME280_humidity;BME280_pressure;Samples;Min_cycle;Max_cycle;Signal;HPM_P1;HPM_P2
2022/10/02 00:00:18;;;;;;;10.43;1.55;;;11.10;99.90;;;;;;5076202;28;20505;-64
2022/10/02 00:02:52;;;;;;;11.50;2.28;;;11.10;99.90;;;;;;5076812;28;20286;-65
2022/10/02 00:05:21;;;;;;;14.30;1.40;;;11.00;99.90;;;;;;5076754;28;20067;-64
2022/10/02 00:07:50;;;;;;;10.45;1.15;;;11.00;99.90;;;;;;5092690;28;20481;-64
2022/10/02 00:10:24;;;;;;;11.65;1.30;;;11.10;99.90;;;;;;5076980;28;20040;-64
2022/10/02 00:12:56;;;;;;;10.75;1.30;;;11.00;99.90;;;;;;5060094;28;20046;-64
2022/10/02 00:15:26;;;;;;;10.52;1.00;;;10.80;99.90;;;;;;5059591;28;21923;-64
2022/10/02 00:17:57;;;;;;;10.32;0.75;;;11.20;99.90;;;;;;5059381;28;20775;-64
2022/10/02 00:20:32;;;;;;;11.05;1.10;;;10.90;99.90;;;;;;5076713;28;20044;-64
2022/10/02 00:23:25;;;;;;;8.23;0.80;;;11.30;99.90;;;;;;5076395;28;20105;-64
2022/10/02 00:26:02;;;;;;;9.93;1.08;;;11.20;99.90;;;;;;5076943;28;20460;-64
2022/10/02 00:28:34;;;;;;;8.98;0.90;;;11.30;99.90;;;;;;5076598;28;20356;-65
2022/10/02 00:31:29;;;;;;;7.70;0.60;;;11.30;99.90;;;;;;5076756;28;20047;-64
2022/10/02 00:34:10;;;;;;;11.20;1.38;;;11.50;99.90;;;;;;5076717;28;20316;-64
2022/10/02 00:36:57;;;;;;;9.30;0.93;;;11.50;99.90;;;;;;5075587;28;20047;-64
2022/10/02 00:39:35;;;;;;;9.63;0.63;;;11.50;99.90;;;;;;5064325;28;20056;-64
2022/10/02 00:42:22;;;;;;;6.18;0.80;;;11.80;99.90;;;;;;5060097;28;20128;-65
2022/10/02 00:45:16;;;;;;;8.27;0.93;;;11.70;99.90;;;;;;5076781;28;20047;-64
2022/10/02 00:47:48;;;;;;;7.43;0.80;;;11.60;99.90;;;;;;5076488;28;20048;-65
2022/10/02 00:50:53;;;;;;;7.32;0.70;;;11.70;99.90;;;;;;5065030;28;20046;-64
2022/10/02 00:53:30;;;;;;;8.32;0.90;;;11.40;99.90;;;;;;5079013;28;20144;-64
2022/10/02 00:56:16;;;;;;;8.82;1.20;;;11.60;99.90;;;;;;5066910;28;21347;-64
2022/10/02 00:59:01;;;;;;;7.43;0.68;;;11.20;99.90;;;;;;5082571;28;20048;-65
2022/10/02 01:01:40;;;;;;;11.32;0.90;;;11.20;99.90;;;;;;5082931;28;20108;-64
2022/10/02 01:04:11;;;;;;;12.07;1.40;;;11.40;99.90;;;;;;5083968;28;20419;-64
2022/10/02 01:06:36;;;;;;;14.65;2.03;;;11.10;99.90;;;;;;5082926;28;20032;-64
2022/10/02 01:09:02;;;;;;;9.02;1.27;;;11.20;99.90;;;;;;5065586;28;20068;-64
2022/10/02 01:11:29;;;;;;;13.25;2.00;;;11.10;99.90;;;;;;5066811;28;20527;-64
2022/10/02 01:13:56;;;;;;;19.88;2.72;;;11.20;99.90;;;;;;5066283;28;20512;-64
2022/10/02 01:16:22;;;;;;;15.05;2.75;;;11.30;99.90;;;;;;5082630;28;20048;-64
2022/10/02 01:18:48;;;;;;;17.42;2.78;;;11.20;99.90;;;;;;5083268;28;20047;-64
2022/10/02 01:21:19;;;;;;;19.70;4.10;;;11.00;99.90;;;;;;5082680;28;20048;-64
2022/10/02 01:24:08;;;;;;;19.83;2.97;;;11.30;99.90;;;;;;5064968;28;20059;-64
2022/10/02 01:26:34;;;;;;;18.27;3.42;;;11.30;99.90;;;;;;5065804;28;20187;-64
2022/10/02 01:29:00;;;;;;;18.75;3.28;;;11.50;99.90;;;;;;5082324;28;20039;-65
2022/10/02 01:31:26;;;;;;;23.73;3.38;;;11.50;99.90;;;;;;5065529;28;20036;-64
2022/10/02 01:33:52;;;;;;;18.35;3.58;;;11.50;99.90;;;;;;5065823;28;20568;-64
2022/10/02 01:36:20;;;;;;;18.88;3.33;;;11.50;99.90;;;;;;5065769;28;20036;-64
2022/10/02 01:38:47;;;;;;;24.70;3.92;;;11.50;99.90;;;;;;5082326;28;20121;-65
2022/10/02 01:41:13;;;;;;;18.77;3.85;;;11.40;99.90;;;;;;5082339;28;20040;-64
2022/10/02 01:43:49;;;;;;;18.58;3.22;;;11.20;99.90;;;;;;5066451;28;20213;-64
2022/10/02 01:46:36;;;;;;;19.25;3.65;;;11.40;99.90;;;;;;5082519;28;20044;-64
2022/10/02 01:49:26;;;;;;;14.82;3.05;;;10.90;99.90;;;;;;5082616;28;20040;-64
2022/10/02 01:52:13;;;;;;;14.43;2.63;;;11.30;99.90;;;;;;5082077;28;20040;-64
2022/10/02 01:55:32;;;;;;;22.38;3.28;;;11.20;99.90;;;;;;5082133;28;20043;-64
2022/10/02 01:58:01;;;;;;;26.17;3.75;;;10.90;99.90;;;;;;5082316;28;20123;-64
2022/10/02 02:00:45;;;;;;;21.98;4.47;;;10.90;99.90;;;;;;5080459;28;20436;-64
2022/10/02 02:03:36;;;;;;;16.50;3.40;;;11.00;99.90;;;;;;5079115;28;20105;-64
2022/10/02 02:06:14;;;;;;;25.33;3.40;;;10.70;99.90;;;;;;5079219;28;20063;-64
2022/10/02 02:09:01;;;;;;;22.95;3.83;;;10.70;99.90;;;;;;5079679;28;20046;-64
2022/10/02 02:11:28;;;;;;;20.20;3.88;;;11.00;99.90;;;;;;5079399;28;20044;-64
2022/10/02 02:14:04;;;;;;;22.45;3.72;;;10.70;99.90;;;;;;5062265;28;20032;-64
2022/10/02 02:16:46;;;;;;;26.13;4.15;;;10.50;99.90;;;;;;5079168;28;20083;-64
2022/10/02 02:19:48;;;;;;;23.23;3.63;;;10.90;99.90;;;;;;5078757;28;20127;-64
2022/10/02 02:22:23;;;;;;;22.75;3.97;;;10.90;99.90;;;;;;5068760;28;20576;-64
2022/10/02 02:25:08;;;;;;;23.33;3.88;;;10.90;99.90;;;;;;5062014;28;20135;-64
2022/10/02 02:27:40;;;;;;;22.63;3.60;;;10.90;99.90;;;;;;5078710;28;20577;-64
2022/10/02 02:30:10;;;;;;;19.02;3.95;;;10.60;99.90;;;;;;5078689;28;20141;-64
2022/10/02 02:32:44;;;;;;;21.23;3.92;;;10.50;99.90;;;;;;5078852;28;20048;-64
2022/10/02 02:35:27;;;;;;;19.80;4.00;;;10.90;99.90;;;;;;5078262;28;20036;-64
2022/10/02 02:38:00;;;;;;;21.75;3.70;;;10.80;99.90;;;;;;5078386;28;20525;-64
2022/10/02 02:40:29;;;;;;;24.60;4.45;;;10.80;99.90;;;;;;5079253;28;20114;-64
2022/10/02 02:43:13;;;;;;;23.85;3.90;;;10.90;99.90;;;;;;5078811;28;20206;-65
2022/10/02 02:45:53;;;;;;;20.67;3.00;;;10.90;99.90;;;;;;5078331;28;20043;-64
2022/10/02 02:48:24;;;;;;;25.92;4.10;;;10.60;99.90;;;;;;5061363;28;20075;-64
2022/10/02 02:50:56;;;;;;;21.75;3.78;;;11.00;99.90;;;;;;5078349;28;20047;-65
2022/10/02 02:53:36;;;;;;;22.00;3.80;;;11.10;99.90;;;;;;5078060;28;20040;-64
2022/10/02 02:56:06;;;;;;;29.73;4.07;;;10.70;99.90;;;;;;5078047;28;20052;-64
2022/10/02 02:58:53;;;;;;;22.25;3.15;;;11.20;99.90;;;;;;5078980;28;20891;-64
2022/10/02 03:01:19;;;;;;;22.95;3.13;;;11.20;99.90;;;;;;5060917;28;20044;-65
2022/10/02 03:03:46;;;;;;;19.20;2.80;;;11.30;99.90;;;;;;5061060;28;20441;-65
2022/10/02 03:06:15;;;;;;;28.42;3.75;;;11.40;99.90;;;;;;5060763;28;20357;-65
2022/10/02 03:08:42;;;;;;;22.65;3.70;;;11.40;99.90;;;;;;5078465;28;20118;-65
2022/10/02 03:11:26;;;;;;;19.50;2.65;;;11.50;99.90;;;;;;5061056;28;20036;-64
2022/10/02 03:14:10;;;;;;;17.92;2.28;;;11.10;99.90;;;;;;5077753;28;20068;-65
2022/10/02 03:17:17;;;;;;;19.35;3.03;;;11.10;99.90;;;;;;5060675;28;20044;-66
2022/10/02 03:19:57;;;;;;;26.88;3.22;;;11.60;99.90;;;;;;4981321;28;20366;-66
2022/10/02 03:22:35;;;;;;;20.15;3.10;;;11.70;99.90;;;;;;5060991;28;20044;-66
2022/10/02 03:25:20;;;;;;;23.52;3.83;;;11.20;99.90;;;;;;5076435;28;20275;-66
2022/10/02 03:27:49;;;;;;;15.80;3.05;;;11.30;99.90;;;;;;5077572;28;20047;-66
2022/10/02 03:30:20;;;;;;;20.17;2.97;;;11.50;99.90;;;;;;5077583;28;20043;-65
2022/10/02 03:32:47;;;;;;;19.10;2.38;;;11.60;99.90;;;;;;5060448;28;20036;-66
2022/10/02 03:35:14;;;;;;;16.60;2.53;;;11.40;99.90;;;;;;5077820;28;20493;-65
2022/10/02 03:37:43;;;;;;;19.15;2.35;;;11.60;99.90;;;;;;5060084;28;20058;-65
2022/10/02 03:40:09;;;;;;;14.82;1.95;;;11.50;99.90;;;;;;5065872;28;20165;-65
2022/10/02 03:42:35;;;;;;;15.65;1.95;;;11.40;99.90;;;;;;5060479;28;20056;-66
2022/10/02 03:45:02;;;;;;;12.05;1.38;;;11.50;99.90;;;;;;5059436;28;20048;-66
2022/10/02 03:47:28;;;;;;;15.20;1.73;;;11.10;99.90;;;;;;5060048;28;20058;-66
2022/10/02 03:49:53;;;;;;;14.95;2.08;;;11.40;99.90;;;;;;5077537;28;20036;-65
2022/10/02 03:52:21;;;;;;;17.92;2.00;;;11.40;99.90;;;;;;5077040;28;20068;-65
2022/10/02 03:54:52;;;;;;;18.80;2.78;;;10.90;99.90;;;;;;5077394;28;20048;-65
2022/10/02 03:57:21;;;;;;;21.95;2.55;;;11.40;99.90;;;;;;5077171;28;20071;-66
2022/10/02 03:59:54;;;;;;;21.27;2.75;;;11.40;99.90;;;;;;5077766;28;20874;-65
2022/10/02 04:02:39;;;;;;;24.58;2.85;;;11.30;99.90;;;;;;5059350;28;20052;-66
2022/10/02 04:05:32;;;;;;;16.42;2.47;;;11.40;99.90;;;;;;5076193;28;20088;-66
2022/10/02 04:08:12;;;;;;;13.75;2.72;;;11.20;99.90;;;;;;5046594;28;20036;-66
2022/10/02 04:11:11;;;;;;;23.23;3.08;;;11.60;99.90;;;;;;5059597;28;20368;-67
2022/10/02 04:13:54;;;;;;;19.95;2.63;;;11.20;99.90;;;;;;5076237;28;20039;-65
2022/10/02 04:16:37;;;;;;;16.70;2.45;;;11.70;99.90;;;;;;5058101;28;20052;-66
2022/10/02 04:19:23;;;;;;;21.67;3.05;;;11.30;99.90;;;;;;5076622;28;20046;-65
2022/10/02 04:22:11;;;;;;;21.58;2.63;;;11.70;99.90;;;;;;5059819;28;20039;-65
2022/10/02 04:24:52;;;;;;;18.88;2.13;;;11.20;99.90;;;;;;5075744;28;20297;-65
2022/10/02 04:27:28;;;;;;;19.38;2.55;;;11.60;99.90;;;;;;5059147;28;20317;-66
2022/10/02 04:30:02;;;;;;;18.33;2.45;;;11.50;99.90;;;;;;5076240;28;20599;-65
2022/10/02 04:32:33;;;;;;;23.05;2.65;;;11.50;99.90;;;;;;5076512;28;20551;-65
2022/10/02 04:35:01;;;;;;;22.95;2.70;;;11.40;99.90;;;;;;5075995;28;20032;-65
2022/10/02 04:37:42;;;;;;;22.95;2.10;;;11.60;99.90;;;;;;5075511;28;20067;-65
2022/10/02 04:40:49;;;;;;;22.30;2.20;;;11.60;99.90;;;;;;5075983;28;20067;-64
2022/10/02 04:43:47;;;;;;;25.42;2.38;;;11.70;99.90;;;;;;5074850;28;20041;-65
2022/10/02 04:46:34;;;;;;;13.30;1.35;;;11.60;99.90;;;;;;5032883;28;20545;-65
2022/10/02 04:49:24;;;;;;;19.77;2.22;;;11.60;99.90;;;;;;5076180;28;20442;-66
2022/10/02 04:52:22;;;;;;;14.50;1.67;;;11.10;99.90;;;;;;5076507;28;20349;-65
2022/10/02 04:55:10;;;;;;;22.60;3.17;;;11.20;99.90;;;;;;5075530;28;20095;-66
2022/10/02 04:57:42;;;;;;;22.33;2.03;;;11.10;99.90;;;;;;5075174;28;20088;-65
2022/10/02 05:00:13;;;;;;;19.63;2.17;;;11.60;99.90;;;;;;5076061;28;20047;-65
2022/10/02 05:03:03;;;;;;;22.65;2.20;;;11.10;99.90;;;;;;5076225;28;20554;-64
2022/10/02 05:06:05;;;;;;;18.23;2.00;;;11.30;99.90;;;;;;5075124;28;20154;-65
2022/10/02 05:08:31;;;;;;;18.30;1.50;;;11.10;99.90;;;;;;5075904;28;20040;-65
2022/10/02 05:11:15;;;;;;;26.08;2.13;;;11.10;99.90;;;;;;5076016;28;20044;-65
2022/10/02 05:13:51;;;;;;;;;;;11.30;99.90;;;;;;5075184;28;20075;-65
2022/10/02 05:16:40;;;;;;;21.95;2.10;;;11.20;99.90;;;;;;5075718;28;19920;-65
2022/10/02 05:19:20;;;;;;;19.48;2.00;;;11.10;99.90;;;;;;5075802;28;20224;-65
2022/10/02 05:22:17;;;;;;;19.92;1.80;;;11.60;99.90;;;;;;5075947;28;20108;-66
2022/10/02 05:24:55;;;;;;;21.65;2.20;;;11.10;99.90;;;;;;5075643;28;20040;-65
2022/10/02 05:27:29;;;;;;;17.13;2.05;;;11.00;99.90;;;;;;5075506;28;20040;-67
2022/10/02 05:30:17;;;;;;;21.23;2.22;;;11.50;99.90;;;;;;5075833;28;20276;-65
2022/10/02 05:33:07;;;;;;;18.08;1.95;;;11.20;99.90;;;;;;5075363;28;20044;-65
2022/10/02 05:36:08;;;;;;;27.85;2.42;;;10.90;99.90;;;;;;5076197;28;20032;-65
2022/10/02 05:38:59;;;;;;;22.70;2.58;;;11.00;99.90;;;;;;5049340;28;20044;-65
2022/10/02 05:41:34;;;;;;;22.35;1.95;;;11.40;99.90;;;;;;5079351;28;20064;-65
2022/10/02 05:44:19;;;;;;;21.98;2.53;;;11.10;99.90;;;;;;5079068;28;20131;-66
2022/10/02 05:46:48;;;;;;;29.85;2.33;;;11.20;99.90;;;;;;5078255;28;20057;-66
2022/10/02 05:49:22;;;;;;;16.73;1.60;;;11.00;99.90;;;;;;5079353;28;20459;-65
2022/10/02 05:51:58;;;;;;;20.33;1.92;;;10.80;99.90;;;;;;5062365;28;20040;-65
2022/10/02 05:54:42;;;;;;;21.40;1.98;;;11.20;99.90;;;;;;5062282;28;20034;-65
2022/10/02 05:57:34;;;;;;;20.80;2.70;;;10.70;99.90;;;;;;5078981;28;20043;-65
2022/10/02 06:00:08;;;;;;;25.02;1.98;;;10.60;99.90;;;;;;5096076;28;20048;-65
2022/10/02 06:02:58;;;;;;;25.60;2.55;;;10.70;99.90;;;;;;5078691;28;20263;-65
2022/10/02 06:05:40;;;;;;;19.48;2.40;;;11.00;99.90;;;;;;5096590;28;20051;-66
2022/10/02 06:08:09;;;;;;;22.50;2.08;;;11.10;99.90;;;;;;5078471;28;20044;-65
2022/10/02 06:10:46;;;;;;;22.95;2.47;;;11.00;99.90;;;;;;5078711;28;20036;-65
2022/10/02 06:13:29;;;;;;;22.50;2.38;;;10.80;99.90;;;;;;5078684;28;20482;-65
2022/10/02 06:16:04;;;;;;;20.40;2.50;;;11.20;99.90;;;;;;5079160;28;20051;-65
2022/10/02 06:18:35;;;;;;;24.10;2.90;;;10.90;99.90;;;;;;5079054;28;20390;-65
2022/10/02 06:21:10;;;;;;;19.10;1.83;;;10.70;99.90;;;;;;5079008;28;20535;-65
2022/10/02 06:23:48;;;;;;;26.52;3.03;;;10.80;99.90;;;;;;5078417;28;20261;-66
2022/10/02 06:26:38;;;;;;;18.48;1.98;;;10.70;99.90;;;;;;5061670;28;20048;-65
2022/10/02 06:29:12;;;;;;;27.90;2.75;;;10.90;99.90;;;;;;5078004;28;20565;-65
2022/10/02 06:32:11;;;;;;;25.08;2.55;;;10.90;99.90;;;;;;5078714;28;20580;-65
2022/10/02 06:34:37;;;;;;;21.20;2.17;;;11.50;99.90;;;;;;5077951;28;20055;-65
2022/10/02 06:37:17;;;;;;;27.63;2.80;;;11.10;99.90;;;;;;5077762;28;20056;-65
2022/10/02 06:39:55;;;;;;;25.10;2.97;;;11.20;99.90;;;;;;5077540;28;20059;-65
2022/10/02 06:42:27;;;;;;;24.83;2.70;;;11.50;99.90;;;;;;5078629;28;20573;-65
2022/10/02 06:45:20;;;;;;;21.23;2.30;;;11.40;99.90;;;;;;5092869;28;20106;-65
2022/10/02 06:48:22;;;;;;;27.42;2.80;;;11.70;99.90;;;;;;5069615;28;20092;-66
2022/10/02 06:51:08;;;;;;;22.63;1.95;;;11.50;99.90;;;;;;5061187;28;20047;-65
2022/10/02 06:53:44;;;;;;;20.00;2.47;;;12.10;99.90;;;;;;5078034;28;20059;-65
2022/10/02 06:56:33;;;;;;;23.02;1.95;;;12.30;99.90;;;;;;5061168;28;20115;-65
2022/10/02 06:59:03;;;;;;;20.50;2.05;;;12.20;99.90;;;;;;5060645;28;20032;-65
2022/10/02 07:01:46;;;;;;;21.08;2.03;;;12.00;99.90;;;;;;5077784;28;20203;-65
2022/10/02 07:04:41;;;;;;;23.80;2.33;;;12.00;99.90;;;;;;5077663;28;20075;-65
2022/10/02 07:07:26;;;;;;;21.90;2.35;;;12.20;99.90;;;;;;5077220;28;20103;-66
2022/10/02 07:10:01;;;;;;;17.70;1.92;;;12.30;99.90;;;;;;5078229;28;20443;-65
2022/10/02 07:12:38;;;;;;;14.48;1.77;;;12.20;99.90;;;;;;5078200;28;20390;-65
2022/10/02 07:15:24;;;;;;;14.82;1.67;;;12.60;99.90;;;;;;5061106;28;20287;-67
2022/10/02 07:18:03;;;;;;;13.18;0.90;;;12.60;99.90;;;;;;5077200;28;20102;-65
2022/10/02 07:20:33;;;;;;;11.98;1.02;;;12.50;99.90;;;;;;5077511;28;20131;-66
2022/10/02 07:23:17;;;;;;;11.52;1.15;;;12.50;99.90;;;;;;5076784;28;20292;-66
2022/10/02 07:26:22;;;;;;;6.72;0.73;;;12.40;99.90;;;;;;5076982;28;20092;-65
2022/10/02 07:29:01;;;;;;;7.88;1.00;;;12.00;99.90;;;;;;5076842;28;20452;-65
2022/10/02 07:31:33;;;;;;;10.98;0.70;;;11.60;99.90;;;;;;5077442;28;20705;-65
2022/10/02 07:34:27;;;;;;;12.02;1.05;;;12.10;99.90;;;;;;5059395;28;20040;-65
2022/10/02 07:37:11;;;;;;;;;;;12.00;99.90;;;;;;5077242;28;20143;-66
2022/10/02 07:40:00;;;;;;;8.02;0.88;;;12.00;99.90;;;;;;5063731;28;20312;-66
2022/10/02 07:43:06;;;;;;;14.75;1.35;;;11.60;99.90;;;;;;5075808;28;20044;-66
2022/10/02 07:45:43;;;;;;;13.13;1.00;;;11.60;99.90;;;;;;5077198;28;20043;-66
2022/10/02 07:48:41;;;;;;;10.45;1.20;;;11.30;99.90;;;;;;5077656;28;20517;-65
2022/10/02 07:51:45;;;;;;;10.75;1.45;;;11.50;99.90;;;;;;5045211;28;20058;-65
2022/10/02 07:54:11;;;;;;;12.95;1.60;;;11.70;99.90;;;;;;5061739;28;20766;-65
2022/10/02 07:56:38;;;;;;;18.58;2.10;;;12.00;99.90;;;;;;5078236;28;20048;-65
2022/10/02 07:59:10;;;;;;;15.57;1.80;;;11.60;99.90;;;;;;5061113;28;20084;-65
2022/10/02 08:01:39;;;;;;;13.10;1.40;;;12.30;99.90;;;;;;5078891;28;20043;-65
2022/10/02 08:04:11;;;;;;;19.33;2.08;;;12.20;99.90;;;;;;5062312;28;20101;-66
2022/10/02 08:06:37;;;;;;;15.35;1.92;;;12.30;99.90;;;;;;5060980;28;20125;-65
2022/10/02 08:09:15;;;;;;;20.05;1.85;;;12.40;99.90;;;;;;5077536;28;20040;-65
2022/10/02 08:12:01;;;;;;;20.75;2.47;;;12.40;99.90;;;;;;5076419;28;20043;-65
2022/10/02 08:14:37;;;;;;;16.70;2.13;;;12.50;99.90;;;;;;5077037;28;20048;-66
2022/10/02 08:17:24;;;;;;;17.83;2.20;;;13.10;99.90;;;;;;5076045;28;20040;-65
2022/10/02 08:19:51;;;;;;;16.52;1.48;;;14.20;99.90;;;;;;5075608;28;20043;-65
2022/10/02 08:22:37;;;;;;;17.23;1.75;;;14.70;99.90;;;;;;5059691;28;20379;-65
2022/10/02 08:25:25;;;;;;;17.33;1.80;;;14.30;99.90;;;;;;5058438;28;20482;-65
2022/10/02 08:28:06;;;;;;;15.73;1.77;;;13.80;99.90;;;;;;5059133;28;20044;-65
2022/10/02 08:30:32;;;;;;;15.88;2.03;;;14.40;99.90;;;;;;5058128;28;20042;-64
2022/10/02 08:32:58;;;;;;;14.15;1.55;;;13.70;99.90;;;;;;5077215;28;20793;-65
2022/10/02 08:35:34;;;;;;;16.88;2.17;;;13.80;99.90;;;;;;5076575;28;20047;-65
2022/10/02 08:38:25;;;;;;;15.38;1.48;;;14.20;99.90;;;;;;5075580;28;20110;-65
2022/10/02 08:41:03;;;;;;;13.35;1.73;;;13.60;99.90;;;;;;5058778;28;20101;-66
2022/10/02 08:43:46;;;;;;;10.88;1.30;;;13.70;99.90;;;;;;5074747;28;20077;-65
2022/10/02 08:46:29;;;;;;;15.63;1.75;;;14.00;99.90;;;;;;5074799;28;20044;-65
2022/10/02 08:49:14;;;;;;;13.52;1.35;;;14.00;99.90;;;;;;5073052;28;20054;-65
2022/10/02 08:52:18;;;;;;;13.70;1.40;;;15.70;99.90;;;;;;5072889;28;20040;-65
2022/10/02 08:55:21;;;;;;;12.82;1.55;;;15.80;99.90;;;;;;5091900;28;20063;-65
2022/10/02 08:58:19;;;;;;;10.75;1.25;;;15.20;99.90;;;;;;5075846;28;20052;-66
2022/10/02 09:01:24;;;;;;;13.60;1.08;;;15.90;99.90;;;;;;5074976;28;20051;-65
2022/10/02 09:04:01;;;;;;;13.75;1.40;;;16.30;99.90;;;;;;5073197;28;20330;-66
2022/10/02 09:06:45;;;;;;;15.90;1.35;;;17.00;99.90;;;;;;5076034;28;20044;-65
2022/10/02 09:09:39;;;;;;;14.05;1.35;;;17.00;99.90;;;;;;5075570;28;20863;-65
2022/10/02 09:12:23;;;;;;;;;;;16.60;99.90;;;;;;5079358;28;20040;-66
2022/10/02 09:14:56;;;;;;;11.40;1.23;;;16.40;99.90;;;;;;5076720;28;19919;-65
2022/10/02 09:17:49;;;;;;;15.57;1.25;;;16.40;99.90;;;;;;5096393;28;20553;-65
2022/10/02 09:20:38;;;;;;;12.35;1.45;;;15.40;99.90;;;;;;5060308;28;20045;-64
2022/10/02 09:23:55;;;;;;;12.70;0.70;;;15.70;99.90;;;;;;5079243;28;20055;-65
2022/10/02 09:26:42;;;;;;;10.43;1.13;;;15.20;99.90;;;;;;5020287;28;20063;-65
2022/10/02 09:29:47;;;;;;;8.23;0.80;;;16.00;99.90;;;;;;5021696;28;20503;-64
2022/10/02 09:32:22;;;;;;;8.80;0.88;;;16.60;99.90;;;;;;5041836;28;20131;-65
2022/10/02 09:35:02;;;;;;;9.43;0.93;;;17.00;99.90;;;;;;5062158;28;20044;-65
2022/10/02 09:38:20;;;;;;;10.35;1.00;;;17.60;99.90;;;;;;5079279;28;20059;-64
2022/10/02 09:41:19;;;;;;;9.93;1.20;;;17.10;99.90;;;;;;5036075;28;20055;-64
2022/10/02 09:44:18;;;;;;;6.78;1.02;;;17.60;99.90;;;;;;5020318;28;20052;-64
2022/10/02 09:47:05;;;;;;;9.13;0.82;;;17.90;99.90;;;;;;5079001;28;20036;-64
2022/10/02 09:49:43;;;;;;;9.18;1.13;;;18.00;99.90;;;;;;5096023;28;20043;-64
2022/10/02 09:52:39;;;;;;;12.80;0.93;;;18.40;99.90;;;;;;5080202;28;20054;-64
2022/10/02 09:55:24;;;;;;;7.63;0.90;;;18.10;99.90;;;;;;5079985;28;20116;-64
2022/10/02 09:58:42;;;;;;;10.98;1.15;;;18.20;99.90;;;;;;5078084;28;20047;-64
2022/10/02 10:01:23;;;;;;;11.18;1.35;;;18.10;99.90;;;;;;5078352;28;20414;-64
2022/10/02 10:04:01;;;;;;;9.23;1.33;;;18.20;99.90;;;;;;5078635;28;20040;-63
2022/10/02 10:06:50;;;;;;;10.90;1.23;;;18.40;99.90;;;;;;5078676;28;20101;-65
2022/10/02 10:09:38;;;;;;;9.43;1.33;;;17.60;99.90;;;;;;5078944;28;20040;-64
2022/10/02 10:12:35;;;;;;;12.20;1.55;;;16.50;99.90;;;;;;5078921;28;20032;-64
2022/10/02 10:15:21;;;;;;;15.50;1.73;;;16.60;99.90;;;;;;5058446;28;20489;-64
2022/10/02 10:18:14;;;;;;;9.93;1.30;;;17.50;99.90;;;;;;5078667;28;20043;-63
2022/10/02 10:21:06;;;;;;;13.60;1.42;;;17.90;99.90;;;;;;5078649;28;20089;-64
2022/10/02 10:23:50;;;;;;;13.90;1.65;;;18.40;99.90;;;;;;5094830;28;20051;-63
2022/10/02 10:26:22;;;;;;;10.98;1.77;;;18.90;99.90;;;;;;5059952;28;20090;-63
2022/10/02 10:29:26;;;;;;;12.85;1.85;;;18.80;99.90;;;;;;5061283;28;20047;-63
2022/10/02 10:32:29;;;;;;;12.25;1.60;;;19.00;99.90;;;;;;5078806;28;20046;-64
2022/10/02 10:35:17;;;;;;;;;;;18.70;99.90;;;;;;5078757;28;20494;-63
2022/10/02 10:38:32;;;;;;;14.13;1.85;;;18.10;99.90;;;;;;5048690;28;19984;-64
2022/10/02 10:41:21;;;;;;;13.70;2.10;;;17.50;99.90;;;;;;5056725;28;20063;-63
2022/10/02 10:44:25;;;;;;;15.40;2.03;;;16.80;99.90;;;;;;5061065;28;20104;-64
2022/10/02 10:47:22;;;;;;;14.02;1.80;;;16.30;99.90;;;;;;5078011;28;20036;-64
2022/10/02 10:50:01;;;;;;;13.70;1.58;;;17.00;99.90;;;;;;5060352;28;21686;-64
2022/10/02 10:53:03;;;;;;;9.50;1.70;;;18.00;99.90;;;;;;5077908;28;20356;-64
2022/10/02 10:55:58;;;;;;;14.57;2.08;;;18.50;99.90;;;;;;5077993;28;20111;-65
2022/10/02 10:58:35;;;;;;;16.15;1.92;;;18.70;99.90;;;;;;5021840;28;20077;-65
2022/10/02 11:01:04;;;;;;;13.82;1.55;;;19.10;99.90;;;;;;5077616;28;20072;-64
2022/10/02 11:03:36;;;;;;;13.13;1.58;;;19.10;99.90;;;;;;5059435;28;20127;-65
2022/10/02 11:06:08;;;;;;;13.25;1.90;;;19.30;99.90;;;;;;5076983;28;20040;-64
2022/10/02 11:08:59;;;;;;;14.18;1.88;;;19.40;99.90;;;;;;5077225;28;20074;-64
2022/10/02 11:11:30;;;;;;;15.25;2.08;;;19.60;99.90;;;;;;5060368;28;20548;-65
2022/10/02 11:14:07;;;;;;;13.65;1.80;;;20.00;99.90;;;;;;5077012;28;20085;-64
2022/10/02 11:17:27;;;;;;;16.10;2.35;;;19.20;99.90;;;;;;5077623;28;20542;-64
2022/10/02 11:20:14;;;;;;;14.02;1.55;;;18.60;99.90;;;;;;5035210;28;20511;-66
2022/10/02 11:23:11;;;;;;;10.18;1.33;;;18.40;99.90;;;;;;5058100;28;20090;-65
2022/10/02 11:26:14;;;;;;;14.57;1.65;;;18.00;99.90;;;;;;5076642;28;20044;-64
2022/10/02 11:29:05;;;;;;;13.43;1.67;;;17.40;99.90;;;;;;5077494;28;20040;-63
2022/10/02 11:32:13;;;;;;;10.63;1.45;;;17.60;99.90;;;;;;5076922;28;20413;-63
2022/10/02 11:34:59;;;;;;;13.75;1.42;;;18.10;99.90;;;;;;5077150;28;20118;-63
2022/10/02 11:37:31;;;;;;;8.50;1.25;;;18.70;99.90;;;;;;5076744;28;20067;-63
2022/10/02 11:40:14;;;;;;;11.65;1.45;;;19.20;99.90;;;;;;5064500;28;20145;-63
2022/10/02 11:43:01;;;;;;;13.80;1.38;;;19.60;99.90;;;;;;5077289;28;20082;-64
2022/10/02 11:45:48;;;;;;;10.73;1.23;;;19.90;99.90;;;;;;5077407;28;20046;-63
2022/10/02 11:48:52;;;;;;;9.35;1.23;;;20.10;99.90;;;;;;5076713;28;20062;-64
2022/10/02 11:51:53;;;;;;;12.75;1.50;;;20.50;99.90;;;;;;5038091;28;20200;-64
2022/10/02 11:54:49;;;;;;;12.35;1.38;;;20.30;99.90;;;;;;5076441;28;20581;-64
2022/10/02 11:57:46;;;;;;;11.38;1.42;;;20.20;99.90;;;;;;5075964;28;20054;-64
2022/10/02 12:00:34;;;;;;;10.00;1.38;;;19.80;99.90;;;;;;5077048;28;20048;-63
2022/10/02 12:03:38;;;;;;;11.00;1.38;;;19.80;99.90;;;;;;5075893;28;20055;-63
2022/10/02 12:06:14;;;;;;;12.07;1.60;;;19.50;99.90;;;;;;5076224;28;20424;-64
2022/10/02 12:09:13;;;;;;;11.70;1.35;;;20.00;99.90;;;;;;5076651;28;20044;-63
2022/10/02 12:12:01;;;;;;;13.82;1.40;;;20.00;99.90;;;;;;5058475;28;20075;-63
2022/10/02 12:14:41;;;;;;;10.20;1.33;;;20.30;99.90;;;;;;5076690;28;20101;-65
2022/10/02 12:17:19;;;;;;;9.52;1.45;;;19.80;99.90;;;;;;5076609;28;20523;-64
2022/10/02 12:28:45;;;;;;;9.45;1.33;;;19.00;99.90;;;;;;5074933;28;20513;-63
2022/10/02 12:31:10;;;;;;;9.63;1.17;;;19.30;99.90;;;;;;5077034;28;20092;-64
2022/10/02 12:34:14;;;;;;;14.05;1.75;;;19.50;99.90;;;;;;5077531;28;20453;-63
2022/10/02 12:36:55;;;;;;;;;;;19.90;99.90;;;;;;5083401;28;20040;-62
2022/10/02 12:39:53;;;;;;;13.20;1.15;;;20.30;99.90;;;;;;5086102;28;20014;-62
2022/10/02 12:42:39;;;;;;;10.18;1.17;;;19.90;99.90;;;;;;5087130;28;20439;-66
2022/10/02 12:45:05;;;;;;;11.80;1.60;;;20.00;99.90;;;;;;5087173;28;20038;-62
2022/10/02 12:47:52;;;;;;;13.68;1.73;;;19.30;99.90;;;;;;5070848;28;20040;-63
2022/10/02 12:50:28;;;;;;;9.90;1.23;;;19.10;99.90;;;;;;5088291;28;20378;-63
2022/10/02 12:53:13;;;;;;;16.40;2.00;;;18.30;99.90;;;;;;5088444;28;20105;-61
2022/10/02 12:56:13;;;;;;;9.27;1.45;;;19.10;99.90;;;;;;5087967;28;20115;-64
2022/10/02 12:58:43;;;;;;;13.98;1.42;;;19.10;99.90;;;;;;5088529;28;20509;-65
2022/10/02 13:01:43;;;;;;;14.88;1.52;;;18.60;99.90;;;;;;5088211;28;20572;-63
2022/10/02 13:04:28;;;;;;;10.95;1.40;;;18.60;99.90;;;;;;5087625;28;20108;-63
2022/10/02 13:07:34;;;;;;;9.88;1.17;;;19.10;99.90;;;;;;5087693;28;20048;-62
2022/10/02 13:10:18;;;;;;;14.20;1.83;;;19.00;99.90;;;;;;5056764;28;20438;-64
2022/10/02 13:13:04;;;;;;;13.38;1.45;;;19.40;99.90;;;;;;5087724;28;20040;-62
2022/10/02 13:15:37;;;;;;;14.38;1.35;;;19.70;99.90;;;;;;5087479;28;20500;-62
2022/10/02 13:18:24;;;;;;;11.63;1.60;;;19.70;99.90;;;;;;5087584;28;20059;-62
2022/10/02 13:21:17;;;;;;;14.73;1.65;;;19.40;99.90;;;;;;5087727;28;20490;-63
2022/10/02 13:24:01;;;;;;;15.00;1.98;;;19.30;99.90;;;;;;5087898;28;20055;-62
2022/10/02 13:26:42;;;;;;;11.27;1.73;;;19.60;99.90;;;;;;5087653;28;20462;-63
2022/10/02 13:29:23;;;;;;;13.00;1.65;;;20.00;99.90;;;;;;5087341;28;20599;-62
2022/10/02 13:32:09;;;;;;;12.45;1.75;;;20.70;99.90;;;;;;5087404;28;20682;-62
2022/10/02 13:35:08;;;;;;;17.08;1.98;;;19.40;99.90;;;;;;5087540;28;20044;-64
2022/10/02 13:37:50;;;;;;;17.08;2.15;;;19.00;99.90;;;;;;5087171;28;20083;-64
2022/10/02 13:40:18;;;;;;;15.38;2.33;;;18.20;99.90;;;;;;5086772;28;20048;-63
2022/10/02 13:43:03;;;;;;;11.23;1.88;;;17.60;99.90;;;;;;5087170;28;20055;-64
2022/10/02 13:46:03;;;;;;;15.27;1.88;;;16.90;99.90;;;;;;5087410;28;20096;-62
2022/10/02 13:48:53;;;;;;;13.57;1.80;;;16.70;99.90;;;;;;5087754;28;20501;-65
2022/10/02 13:52:12;;;;;;;14.73;1.92;;;16.50;99.90;;;;;;5087665;28;20046;-65
2022/10/02 13:54:50;;;;;;;14.45;1.85;;;16.60;99.90;;;;;;5085236;28;20068;-63
2022/10/02 13:57:39;;;;;;;11.27;1.35;;;16.60;99.90;;;;;;5087958;28;20044;-63
2022/10/02 14:00:28;;;;;;;15.00;2.30;;;16.90;99.90;;;;;;5081689;28;20722;-65
2022/10/02 14:03:02;;;;;;;17.95;2.28;;;17.60;99.90;;;;;;5054212;28;20131;-63
2022/10/02 14:05:53;;;;;;;14.70;2.40;;;18.00;99.90;;;;;;5064797;28;20054;-64
2022/10/02 14:08:45;;;;;;;13.05;1.67;;;17.70;99.90;;;;;;5081861;28;20482;-63